Time;durP1;ratioP1;P1;durP2;ratioP2;P2;SDS_P1;SDS_P2;PMS_P1;PMS_P2;Temp;Humidity;BMP_temperature;BMP_pressure;BME280_temperature;BME280_humidity;BME280_pressure;Samples;Min_cycle;Max_cycle;Signal;HPM_P1;HPM_P2
2021/11/13 00:02:15;;;;;;;6.63;6.23;;;;;;;5.42;99.31;100985.25;5073414;28;20437;-69
2021/11/13 00:04:41;;;;;;;0.40;0.20;;;;;;;5.43;98.88;100976.94;5073164;28;20488;-69
2021/11/13 00:07:08;;;;;;;15.23;4.47;;;;;;;5.46;98.98;100989.06;5073378;28;20445;-69
2021/11/13 00:09:36;;;;;;;0.40;0.20;;;;;;;5.45;98.85;100974.81;5073394;28;20453;-69
2021/11/13 00:12:03;;;;;;;0.40;0.30;;;;;;;5.43;98.82;100966.19;5074359;28;20453;-69
2021/11/13 00:14:30;;;;;;;0.40;0.30;;;;;;;5.42;98.87;100963.78;5073293;28;20460;-69
2021/11/13 00:16:56;;;;;;;0.40;0.30;;;;;;;5.42;99.41;100959.19;5054732;28;20854;-69
2021/11/13 00:19:23;;;;;;;0.40;0.30;;;;;;;5.43;99.52;100955.44;5053161;28;20446;-69
2021/11/13 00:21:49;;;;;;;0.60;0.60;;;;;;;5.37;99.13;100956.47;5052904;28;20453;-69
2021/11/13 00:24:16;;;;;;;0.40;0.30;;;;;;;5.35;98.85;100952.41;5052671;28;20482;-69
2021/11/13 00:26:44;;;;;;;0.50;0.40;;;;;;;5.35;98.80;100955.91;5057192;28;20480;-69
2021/11/13 00:29:11;;;;;;;0.40;0.27;;;;;;;5.37;98.48;100953.78;5072799;28;20829;-69
2021/11/13 00:31:37;;;;;;;0.40;0.30;;;;;;;5.34;98.65;100959.69;5073223;28;20445;-69
2021/11/13 00:34:04;;;;;;;1.90;1.70;;;;;;;5.33;98.82;100958.06;5072788;28;20448;-69
2021/11/13 00:36:30;;;;;;;0.73;0.73;;;;;;;5.31;98.78;100957.50;5072660;28;21001;-69
2021/11/13 00:38:57;;;;;;;0.40;0.30;;;;;;;5.36;99.23;100954.03;5072980;28;20448;-69
2021/11/13 00:41:24;;;;;;;0.40;0.30;;;;;;;5.30;99.86;100951.31;5073008;28;20500;-69
2021/11/13 00:43:51;;;;;;;0.70;0.70;;;;;;;5.28;98.94;100963.41;5074238;28;20485;-69
2021/11/13 00:46:18;;;;;;;0.40;0.30;;;;;;;5.23;99.74;100974.09;5076605;28;20817;-69
2021/11/13 00:48:44;;;;;;;0.40;0.30;;;;;;;5.17;98.76;100973.22;5076979;28;20799;-69
2021/11/13 00:51:11;;;;;;;0.40;0.40;;;;;;;5.23;98.35;100966.84;5076592;28;20449;-69
2021/11/13 00:53:38;;;;;;;0.40;0.30;;;;;;;5.25;98.18;100969.28;5076835;28;20512;-69
2021/11/13 00:56:04;;;;;;;0.40;0.30;;;;;;;5.22;98.80;100984.03;5076747;28;20469;-69
2021/11/13 00:58:31;;;;;;;0.40;0.30;;;;;;;5.21;98.54;100974.34;5076711;28;20448;-69
2021/11/13 01:00:59;;;;;;;3.20;2.97;;;;;;;5.20;98.83;100974.59;5076668;28;20441;-68
2021/11/13 01:03:25;;;;;;;0.40;0.20;;;;;;;5.20;98.65;100975.41;5076563;28;20480;-67
2021/11/13 01:05:52;;;;;;;0.40;0.30;;;;;;;5.21;98.42;100949.38;5076532;28;20471;-68
2021/11/13 01:08:18;;;;;;;0.40;0.30;;;;;;;5.22;98.37;100949.13;5076220;28;20449;-69
2021/11/13 01:10:45;;;;;;;0.40;0.30;;;;;;;5.20;98.47;100956.59;5076497;28;20437;-69
2021/11/13 01:13:11;;;;;;;0.40;0.30;;;;;;;5.17;99.05;100965.16;5076178;28;20487;-69
2021/11/13 01:15:38;;;;;;;0.40;0.30;;;;;;;5.16;98.92;100954.69;5076421;28;20456;-69
2021/11/13 01:18:06;;;;;;;0.50;0.40;;;;;;;5.15;98.60;100961.13;5076517;28;20853;-69
2021/11/13 01:20:33;;;;;;;0.50;0.40;;;;;;;5.12;98.02;100957.06;5076026;28;20467;-69
2021/11/13 01:23:00;;;;;;;0.40;0.30;;;;;;;5.09;98.64;100954.09;5075884;28;20461;-69
2021/11/13 01:25:27;;;;;;;1.23;0.87;;;;;;;5.07;99.11;100957.03;5076128;28;20465;-69
2021/11/13 01:27:54;;;;;;;0.40;0.27;;;;;;;5.05;98.42;100959.97;5076214;28;20436;-70
2021/11/13 01:30:20;;;;;;;0.40;0.20;;;;;;;4.99;98.07;100949.44;5076091;28;20448;-70
2021/11/13 01:32:47;;;;;;;1.70;1.60;;;;;;;5.01;98.11;100963.44;5076129;28;20487;-70
2021/11/13 01:35:17;;;;;;;3.60;3.43;;;;;;;5.02;98.69;100957.00;5075996;28;20457;-70
2021/11/13 01:37:44;;;;;;;0.40;0.23;;;;;;;4.96;99.25;100947.28;5076030;28;20437;-70
2021/11/13 01:40:14;;;;;;;0.87;0.80;;;;;;;4.97;98.85;100946.22;5076013;28;20440;-70
2021/11/13 01:42:41;;;;;;;2.67;2.57;;;;;;;4.93;99.89;100935.16;5075643;28;20448;-70
2021/11/13 01:45:09;;;;;;;1.03;1.03;;;;;;;4.97;99.58;100930.09;5075759;28;20488;-70
2021/11/13 01:47:38;;;;;;;0.40;0.30;;;;;;;4.98;99.02;100945.13;5075920;28;20508;-70
2021/11/13 01:50:10;;;;;;;0.40;0.30;;;;;;;4.97;98.71;100925.53;5075826;28;20865;-70
2021/11/13 01:52:38;;;;;;;1.33;1.23;;;;;;;4.96;99.38;100917.75;5075763;28;20421;-70
2021/11/13 01:55:05;;;;;;;5.60;3.30;;;;;;;4.95;100.00;100922.28;5075138;28;20464;-69
2021/11/13 01:57:43;;;;;;;0.40;0.30;;;;;;;4.95;100.00;100929.53;5075630;28;20449;-70
2021/11/13 02:00:12;;;;;;;2.33;2.23;;;;;;;4.97;100.00;100914.00;5075644;28;20429;-70
2021/11/13 02:02:38;;;;;;;0.40;0.30;;;;;;;5.02;100.00;100917.53;5075712;28;20441;-70
2021/11/13 02:05:05;;;;;;;0.40;0.30;;;;;;;5.05;99.60;100937.69;5075099;28;21017;-70
2021/11/13 02:07:31;;;;;;;0.40;0.30;;;;;;;5.04;100.00;100920.75;5075457;28;20440;-69
2021/11/13 02:09:59;;;;;;;0.40;0.20;;;;;;;5.08;99.76;100926.44;5075403;28;20809;-70
2021/11/13 02:12:26;;;;;;;3.30;3.10;;;;;;;5.08;99.36;100939.84;5075052;28;20931;-70
2021/11/13 02:14:52;;;;;;;0.40;0.27;;;;;;;5.10;98.97;100939.63;5075212;28;20433;-69
2021/11/13 02:17:19;;;;;;;0.40;0.30;;;;;;;5.05;98.89;100930.44;5075348;28;20495;-70
2021/11/13 02:19:50;;;;;;;0.40;0.30;;;;;;;5.03;99.05;100915.66;5075247;28;20441;-70
2021/11/13 02:22:17;;;;;;;0.40;0.20;;;;;;;5.03;98.73;100918.34;5074947;28;20826;-70
2021/11/13 02:24:45;;;;;;;0.50;0.40;;;;;;;5.12;98.12;100919.47;5075003;28;20485;-70
2021/11/13 02:27:11;;;;;;;1.03;0.93;;;;;;;5.07;98.00;100911.41;5075110;28;20465;-70
2021/11/13 02:29:38;;;;;;;0.40;0.30;;;;;;;5.03;96.93;100896.88;5074727;28;20954;-70
2021/11/13 02:32:06;;;;;;;0.40;0.30;;;;;;;5.02;97.78;100903.31;5074719;28;20838;-70
2021/11/13 02:34:32;;;;;;;0.40;0.30;;;;;;;5.00;97.04;100892.84;5074620;28;20805;-70
2021/11/13 02:37:00;;;;;;;0.40;0.30;;;;;;;5.05;97.05;100900.91;5074826;28;20461;-69
2021/11/13 02:39:27;;;;;;;1.03;1.03;;;;;;;5.09;97.25;100908.44;5074872;28;20444;-70
2021/11/13 02:41:54;;;;;;;1.67;1.57;;;;;;;5.09;97.84;100914.66;5074771;28;20445;-70
2021/11/13 02:44:22;;;;;;;0.40;0.30;;;;;;;5.09;98.96;100909.28;5074685;28;20492;-70
2021/11/13 02:46:51;;;;;;;0.40;0.30;;;;;;;5.10;99.44;100885.91;5074691;28;20472;-70
2021/11/13 02:49:18;;;;;;;0.63;0.63;;;;;;;5.15;99.59;100912.81;5074549;28;20453;-70
2021/11/13 02:51:45;;;;;;;0.93;0.93;;;;;;;5.12;99.36;100889.94;5074627;28;20440;-70
2021/11/13 02:54:13;;;;;;;0.40;0.30;;;;;;;5.17;99.30;100873.88;5074541;28;20437;-70
2021/11/13 02:56:39;;;;;;;0.40;0.40;;;;;;;5.16;99.72;100877.63;5074463;28;20839;-70
2021/11/13 02:59:06;;;;;;;0.50;0.40;;;;;;;5.22;99.32;100870.41;5074464;28;20463;-70
2021/11/13 03:01:32;;;;;;;0.40;0.30;;;;;;;5.18;99.56;100867.47;5074403;28;20445;-70
2021/11/13 03:03:59;;;;;;;0.40;0.27;;;;;;;5.14;99.71;100866.34;5074288;28;20477;-70
2021/11/13 03:06:25;;;;;;;0.40;0.30;;;;;;;5.12;99.75;100863.09;5073123;28;20982;-70
2021/11/13 03:08:54;;;;;;;0.40;0.30;;;;;;;5.09;99.89;100860.13;5073945;28;20445;-70
2021/11/13 03:11:22;;;;;;;0.40;0.30;;;;;;;5.10;100.00;100864.44;5074192;28;20475;-70
2021/11/13 03:13:52;;;;;;;0.50;0.40;;;;;;;5.12;100.00;100870.34;5074171;28;20454;-70
2021/11/13 03:16:20;;;;;;;0.40;0.30;;;;;;;5.10;99.45;100861.75;5074013;28;20473;-70
2021/11/13 03:18:47;;;;;;;0.40;0.30;;;;;;;4.96;98.86;100864.06;5074059;28;20441;-70
2021/11/13 03:21:14;;;;;;;0.40;0.30;;;;;;;4.99;99.07;100869.72;5073877;28;20445;-70
2021/11/13 03:23:43;;;;;;;0.60;0.30;;;;;;;5.03;98.80;100872.69;5073653;28;20803;-70
2021/11/13 03:26:14;;;;;;;0.40;0.30;;;;;;;5.01;99.03;100870.28;5073838;28;20468;-70
2021/11/13 03:28:48;;;;;;;0.40;0.30;;;;;;;5.06;98.89;100872.19;5073952;28;20429;-70
2021/11/13 03:31:15;;;;;;;1.27;1.17;;;;;;;5.09;99.21;100868.16;5073868;28;20836;-70
2021/11/13 03:33:42;;;;;;;29.40;22.90;;;;;;;4.99;99.10;100863.53;5073523;28;21052;-70
2021/11/13 03:36:10;;;;;;;0.47;0.40;;;;;;;5.06;98.75;100856.09;5073686;28;20462;-70
2021/11/13 03:38:39;;;;;;;0.40;0.30;;;;;;;5.05;98.07;100859.84;5073718;28;20449;-71
2021/11/13 03:41:06;;;;;;;0.40;0.30;;;;;;;4.99;98.24;100852.81;5073414;28;20800;-71
2021/11/13 03:43:34;;;;;;;0.47;0.40;;;;;;;4.95;99.44;100836.41;5073625;28;20441;-70
2021/11/13 03:46:01;;;;;;;0.60;0.60;;;;;;;5.00;99.98;100836.47;5073470;28;20488;-70
2021/11/13 03:48:28;;;;;;;0.40;0.30;;;;;;;5.02;100.00;100837.00;5073544;28;20463;-71
2021/11/13 03:50:54;;;;;;;0.50;0.30;;;;;;;5.08;100.00;100835.16;5073520;28;20437;-71
2021/11/13 03:53:21;;;;;;;0.40;0.27;;;;;;;5.12;99.50;100833.56;5073489;28;20449;-70
2021/11/13 03:55:48;;;;;;;0.40;0.30;;;;;;;5.09;99.82;100826.06;5073404;28;20465;-70
2021/11/13 03:58:14;;;;;;;0.40;0.27;;;;;;;5.17;100.00;100820.16;5073112;28;20441;-68
2021/11/13 04:00:41;;;;;;;0.50;0.50;;;;;;;5.14;100.00;100817.22;5073016;28;20449;-67
2021/11/13 04:03:09;;;;;;;0.40;0.30;;;;;;;5.18;99.57;100826.34;5073413;28;20464;-68
2021/11/13 04:05:35;;;;;;;0.40;0.30;;;;;;;5.13;99.46;100823.63;5073223;28;20867;-68
2021/11/13 04:08:03;;;;;;;0.40;0.30;;;;;;;5.09;99.88;100819.84;5073308;28;20445;-68
2021/11/13 04:10:30;;;;;;;15.87;9.80;;;;;;;5.10;99.61;100826.84;5073323;28;20472;-68
2021/11/13 04:12:57;;;;;;;0.40;0.20;;;;;;;5.08;99.69;100827.09;5073246;28;20442;-68
2021/11/13 04:15:23;;;;;;;0.40;0.30;;;;;;;5.07;99.45;100822.81;5073154;28;20469;-69
2021/11/13 04:17:50;;;;;;;0.50;0.30;;;;;;;5.13;98.90;100812.91;5073047;28;20436;-69
2021/11/13 04:20:20;;;;;;;0.43;0.30;;;;;;;5.07;98.96;100814.75;5073208;28;20524;-69
2021/11/13 04:22:48;;;;;;;0.40;0.30;;;;;;;5.00;98.54;100827.56;5072768;28;20543;-69
2021/11/13 04:25:15;;;;;;;0.40;0.30;;;;;;;5.03;98.34;100837.81;5072991;28;20492;-69
2021/11/13 04:27:42;;;;;;;0.40;0.20;;;;;;;4.99;98.93;100852.81;5073132;28;20437;-67
2021/11/13 04:30:14;;;;;;;0.40;0.27;;;;;;;5.03;98.96;100853.91;5073112;28;20433;-67
2021/11/13 04:32:41;;;;;;;0.50;0.50;;;;;;;4.99;98.44;100861.66;5073126;28;20495;-68
2021/11/13 04:35:18;;;;;;;0.40;0.30;;;;;;;5.02;99.07;100860.34;5072996;28;20464;-67
2021/11/13 04:37:49;;;;;;;2.33;2.13;;;;;;;5.08;98.51;100862.00;5073082;28;20523;-68
2021/11/13 04:40:17;;;;;;;0.40;0.20;;;;;;;5.04;97.42;100858.22;5073045;28;20429;-67
2021/11/13 04:42:43;;;;;;;0.40;0.30;;;;;;;5.05;97.76;100862.53;5072694;28;20957;-67
2021/11/13 04:45:11;;;;;;;0.40;0.20;;;;;;;5.00;97.75;100870.53;5063345;28;20535;-67
2021/11/13 04:47:37;;;;;;;0.50;0.20;;;;;;;4.94;98.92;100872.38;5052922;28;20449;-68
2021/11/13 04:50:06;;;;;;;1.40;1.30;;;;;;;4.99;99.38;100883.13;5052621;28;20940;-67
2021/11/13 04:52:33;;;;;;;0.40;0.27;;;;;;;5.00;99.85;100886.63;5052745;28;20442;-67
2021/11/13 04:55:02;;;;;;;1.80;1.53;;;;;;;5.05;99.91;100894.75;5052795;28;20461;-67
2021/11/13 04:57:28;;;;;;;0.40;0.30;;;;;;;5.11;100.00;100895.59;5052787;28;20533;-68
2021/11/13 04:59:55;;;;;;;2.40;2.30;;;;;;;5.15;100.00;100899.38;5052475;28;20461;-68
2021/11/13 05:02:21;;;;;;;0.40;0.27;;;;;;;5.20;99.31;100894.84;5052720;28;20438;-67
2021/11/13 05:04:53;;;;;;;0.40;0.20;;;;;;;5.21;98.61;100893.78;5052600;28;20485;-69
2021/11/13 05:07:20;;;;;;;0.40;0.27;;;;;;;5.20;99.32;100892.16;5052754;28;20426;-67
2021/11/13 05:09:46;;;;;;;0.40;0.30;;;;;;;5.28;99.03;100894.38;5052688;28;20442;-67
2021/11/13 05:12:14;;;;;;;0.50;0.20;;;;;;;5.32;98.42;100883.94;5052662;28;20449;-67
2021/11/13 05:14:41;;;;;;;0.40;0.30;;;;;;;5.27;98.58;100882.03;5052528;28;20438;-67
2021/11/13 05:17:07;;;;;;;0.40;0.20;;;;;;;5.30;98.07;100896.78;5052630;28;20447;-67
2021/11/13 05:19:34;;;;;;;0.40;0.30;;;;;;;5.28;97.98;100899.75;5063503;28;21006;-67
2021/11/13 05:22:00;;;;;;;0.40;0.30;;;;;;;5.26;97.75;100896.50;5072333;28;20449;-67
2021/11/13 05:24:26;;;;;;;0.40;0.30;;;;;;;5.18;98.02;100894.31;5072518;28;20450;-67
2021/11/13 05:26:53;;;;;;;0.40;0.20;;;;;;;5.12;97.61;100889.94;5072497;28;20464;-68
2021/11/13 05:29:20;;;;;;;0.40;0.30;;;;;;;5.09;97.98;100889.66;5072931;28;20444;-67
2021/11/13 05:31:47;;;;;;;0.57;0.57;;;;;;;5.02;97.78;100893.38;5076063;28;20442;-66
2021/11/13 05:34:14;;;;;;;0.40;0.30;;;;;;;5.02;97.36;100900.63;5076121;28;20493;-68
2021/11/13 05:36:40;;;;;;;0.40;0.20;;;;;;;5.03;97.25;100896.88;5075984;28;20485;-67
2021/11/13 05:39:07;;;;;;;0.40;0.30;;;;;;;5.02;96.67;100887.19;5075988;28;20540;-67
2021/11/13 05:41:34;;;;;;;0.40;0.30;;;;;;;5.06;97.06;100883.75;5075684;28;20437;-68
2021/11/13 05:44:00;;;;;;;0.40;0.20;;;;;;;5.17;97.00;100892.66;5075939;28;20446;-67
2021/11/13 05:46:28;;;;;;;0.40;0.20;;;;;;;5.13;96.83;100877.34;5075716;28;20493;-67
2021/11/13 05:48:55;;;;;;;0.40;0.30;;;;;;;5.09;98.19;100879.75;5075536;28;20444;-68
2021/11/13 05:51:21;;;;;;;0.40;0.20;;;;;;;5.15;97.95;100886.75;5075822;28;20441;-67
2021/11/13 05:53:47;;;;;;;0.40;0.30;;;;;;;5.16;97.74;100891.06;5075719;28;20444;-67
2021/11/13 05:56:14;;;;;;;0.57;0.57;;;;;;;5.16;98.51;100893.75;5075575;28;20461;-67
2021/11/13 05:58:40;;;;;;;0.40;0.30;;;;;;;5.22;98.37;100895.41;5075667;28;20464;-67
2021/11/13 06:01:07;;;;;;;0.40;0.30;;;;;;;5.23;98.20;100891.66;5075320;28;20852;-66
2021/11/13 06:03:35;;;;;;;0.40;0.30;;;;;;;5.20;97.93;100886.78;5075761;28;20450;-67
2021/11/13 06:06:02;;;;;;;0.40;0.30;;;;;;;5.18;98.80;100886.25;5075384;28;20496;-67
2021/11/13 06:08:28;;;;;;;2.00;1.90;;;;;;;5.16;99.03;100880.31;5075199;28;20935;-67
2021/11/13 06:10:55;;;;;;;0.40;0.20;;;;;;;5.21;99.28;100887.59;5075400;28;20449;-68
2021/11/13 06:13:21;;;;;;;0.40;0.30;;;;;;;5.21;99.79;100893.78;5076584;28;20988;-67
2021/11/13 06:15:47;;;;;;;0.43;0.27;;;;;;;5.22;99.96;100890.06;5074971;28;20462;-68
2021/11/13 06:18:14;;;;;;;0.40;0.30;;;;;;;5.25;100.00;100894.06;5075430;28;20449;-68
2021/11/13 06:20:42;;;;;;;0.40;0.30;;;;;;;5.31;99.58;100890.34;5075286;28;20438;-67
2021/11/13 06:23:09;;;;;;;0.40;0.30;;;;;;;5.34;98.70;100883.66;5074961;28;20453;-67
2021/11/13 06:25:36;;;;;;;0.40;0.27;;;;;;;5.31;98.18;100880.44;5068084;28;20604;-68
2021/11/13 06:28:02;;;;;;;0.40;0.30;;;;;;;5.35;97.56;100893.34;5055115;28;20441;-67
2021/11/13 06:30:29;;;;;;;15.47;11.37;;;;;;;5.32;96.88;100897.38;5055106;28;20442;-67
2021/11/13 06:32:56;;;;;;;0.40;0.30;;;;;;;5.28;96.88;100893.56;5055004;28;20549;-67
2021/11/13 06:35:23;;;;;;;0.40;0.23;;;;;;;5.26;97.15;100896.50;5054888;28;20462;-67
2021/11/13 06:37:50;;;;;;;0.40;0.27;;;;;;;5.27;97.29;100884.72;5054886;28;20446;-67
2021/11/13 06:40:18;;;;;;;0.40;0.20;;;;;;;5.21;96.71;100891.09;5054884;28;20442;-67
2021/11/13 06:42:45;;;;;;;11.03;3.50;;;;;;;5.24;97.30;100904.00;5054887;28;20473;-68
2021/11/13 06:45:13;;;;;;;0.40;0.30;;;;;;;5.25;97.77;100908.31;5054688;28;20508;-68
2021/11/13 06:47:40;;;;;;;0.40;0.30;;;;;;;5.22;97.32;100914.22;5054666;28;20511;-68
2021/11/13 06:50:09;;;;;;;13.43;7.83;;;;;;;5.23;96.54;100913.16;5054672;28;20446;-67
2021/11/13 06:52:37;;;;;;;0.40;0.30;;;;;;;5.27;96.85;100914.25;5054711;28;20456;-68
2021/11/13 06:55:05;;;;;;;0.40;0.30;;;;;;;5.27;97.60;100919.63;5054515;28;20461;-68
2021/11/13 06:57:32;;;;;;;0.40;0.30;;;;;;;5.28;98.48;100923.91;5054562;28;20442;-68
2021/11/13 06:59:58;;;;;;;0.40;0.30;;;;;;;5.32;98.67;100921.53;5054478;28;20442;-68
2021/11/13 07:02:25;;;;;;;0.40;0.30;;;;;;;5.41;98.72;100935.28;5054455;28;20450;-68
2021/11/13 07:04:52;;;;;;;0.40;0.30;;;;;;;5.45;98.96;100936.41;5054308;28;20442;-67
2021/11/13 07:07:19;;;;;;;0.40;0.30;;;;;;;5.44;98.51;100940.13;5054358;28;20442;-68
2021/11/13 07:09:45;;;;;;;0.40;0.30;;;;;;;5.47;98.03;100950.38;5054318;28;20442;-68
2021/11/13 07:12:13;;;;;;;0.40;0.30;;;;;;;5.40;98.38;100939.88;5053992;28;20954;-68
2021/11/13 07:14:40;;;;;;;0.40;0.30;;;;;;;5.47;98.69;100934.25;5054170;28;20446;-68
2021/11/13 07:17:06;;;;;;;0.40;0.30;;;;;;;5.46;99.15;100938.00;5072610;28;20464;-68
2021/11/13 07:19:33;;;;;;;0.40;0.30;;;;;;;5.51;98.90;100932.66;5074076;28;20449;-68
2021/11/13 07:21:59;;;;;;;0.40;0.20;;;;;;;5.58;98.68;100927.91;5073686;28;20824;-67
2021/11/13 07:24:26;;;;;;;0.40;0.20;;;;;;;5.57;98.63;100924.38;5073687;28;20953;-68
2021/11/13 07:26:53;;;;;;;0.40;0.30;;;;;;;5.59;98.24;100926.00;5073815;28;20488;-68
2021/11/13 07:29:23;;;;;;;0.40;0.27;;;;;;;5.64;97.83;100937.59;5073864;28;20476;-67
2021/11/13 07:31:50;;;;;;;0.40;0.30;;;;;;;5.62;97.83;100934.34;5073899;28;20434;-68
2021/11/13 07:34:16;;;;;;;0.53;0.53;;;;;;;5.53;97.15;100923.28;5073530;28;20939;-68
2021/11/13 07:36:43;;;;;;;0.40;0.30;;;;;;;5.59;96.95;100926.00;5073677;28;20484;-68
2021/11/13 07:39:09;;;;;;;0.40;0.30;;;;;;;5.57;96.85;100928.94;5073780;28;20817;-68
2021/11/13 07:41:36;;;;;;;0.40;0.30;;;;;;;5.65;97.00;100924.97;5073719;28;20452;-68
2021/11/13 07:44:04;;;;;;;0.40;0.27;;;;;;;5.71;96.97;100940.03;5073638;28;20445;-68
2021/11/13 07:46:32;;;;;;;0.40;0.30;;;;;;;5.73;96.80;100935.22;5073112;28;20492;-68
2021/11/13 07:48:58;;;;;;;0.40;0.30;;;;;;;5.72;95.95;100926.38;5073278;28;20931;-68
2021/11/13 07:51:25;;;;;;;2.00;1.90;;;;;;;5.76;95.91;100926.66;5073252;28;20478;-68
2021/11/13 07:53:51;;;;;;;0.50;0.50;;;;;;;5.73;96.68;100925.28;5073078;28;20437;-68
2021/11/13 07:56:18;;;;;;;0.40;0.30;;;;;;;5.72;96.32;100922.88;5073102;28;20962;-68
2021/11/13 07:58:44;;;;;;;0.40;0.30;;;;;;;5.75;96.58;100920.44;5073450;28;20434;-68
2021/11/13 08:01:11;;;;;;;0.40;0.30;;;;;;;5.86;96.34;100920.53;5073427;28;20441;-68
2021/11/13 08:03:39;;;;;;;0.40;0.20;;;;;;;5.88;96.64;100923.75;5073019;28;20984;-68
2021/11/13 08:06:05;;;;;;;0.40;0.30;;;;;;;5.87;96.91;100922.94;5073275;28;20519;-68
2021/11/13 08:08:31;;;;;;;0.40;0.30;;;;;;;5.92;96.98;100935.63;5073233;28;20437;-68
2021/11/13 08:11:00;;;;;;;0.40;0.30;;;;;;;5.90;97.14;100938.56;5073358;28;20438;-68
2021/11/13 08:13:27;;;;;;;0.40;0.30;;;;;;;5.96;96.81;100936.72;5073291;28;20534;-68
2021/11/13 08:15:53;;;;;;;0.40;0.20;;;;;;;5.98;97.52;100937.28;5073196;28;20560;-68
2021/11/13 08:18:21;;;;;;;0.40;0.30;;;;;;;6.00;97.86;100935.94;5073221;28;20444;-68
2021/11/13 08:20:49;;;;;;;0.40;0.23;;;;;;;6.05;96.75;100932.47;5073225;28;20441;-68
2021/11/13 08:23:16;;;;;;;0.40;0.30;;;;;;;6.02;95.86;100923.06;5072869;28;20460;-68
2021/11/13 08:25:44;;;;;;;0.40;0.20;;;;;;;6.01;96.56;100934.06;5073356;28;20504;-68
2021/11/13 08:28:11;;;;;;;0.40;0.30;;;;;;;6.05;96.68;100944.03;5073140;28;20448;-68
2021/11/13 08:30:38;;;;;;;1.03;1.03;;;;;;;6.06;96.90;100939.44;5073151;28;20858;-68
2021/11/13 08:33:07;;;;;;;0.40;0.30;;;;;;;6.11;97.04;100941.34;5073180;28;20434;-68
2021/11/13 08:35:34;;;;;;;0.40;0.30;;;;;;;6.14;96.82;100930.88;5073041;28;20547;-68
2021/11/13 08:38:02;;;;;;;1.80;1.53;;;;;;;6.22;96.87;100933.06;5073069;28;20445;-68
2021/11/13 08:40:28;;;;;;;0.40;0.30;;;;;;;6.30;97.00;100939.84;5073043;28;20441;-68
2021/11/13 08:42:55;;;;;;;0.40;0.30;;;;;;;6.42;96.50;100950.34;5073041;28;20445;-68
2021/11/13 08:45:21;;;;;;;0.40;0.20;;;;;;;6.49;95.79;100945.53;5072877;28;20468;-68
2021/11/13 08:47:48;;;;;;;0.40;0.30;;;;;;;6.46;95.54;100946.91;5072963;28;20456;-69
2021/11/13 08:50:19;;;;;;;0.40;0.30;;;;;;;6.50;95.68;100941.78;5072938;28;20454;-68
2021/11/13 08:52:47;;;;;;;0.70;0.70;;;;;;;6.58;95.10;100952.81;5072885;28;20483;-68
2021/11/13 08:55:15;;;;;;;0.40;0.30;;;;;;;6.64;94.68;100953.69;5072865;28;20465;-68
2021/11/13 08:57:42;;;;;;;0.40;0.30;;;;;;;6.67;94.39;100944.25;5072862;28;20486;-68
2021/11/13 09:00:10;;;;;;;0.40;0.30;;;;;;;6.67;93.93;100952.31;5072870;28;20437;-68
2021/11/13 09:02:37;;;;;;;0.40;0.30;;;;;;;6.58;95.02;100954.72;5072742;28;20437;-68
2021/11/13 09:05:06;;;;;;;0.53;0.50;;;;;;;6.65;95.13;100957.97;5074390;28;20461;-68
2021/11/13 09:07:32;;;;;;;1.90;1.80;;;;;;;6.68;95.05;100954.72;5076193;28;20867;-68
2021/11/13 09:09:59;;;;;;;0.40;0.30;;;;;;;6.81;94.73;100954.22;5076513;28;20441;-68
2021/11/13 09:12:31;;;;;;;0.83;0.83;;;;;;;6.92;94.28;100956.94;5076543;28;20449;-68
2021/11/13 09:15:03;;;;;;;0.40;0.30;;;;;;;6.96;94.04;100958.03;5076531;28;20860;-68
2021/11/13 09:17:30;;;;;;;0.40;0.30;;;;;;;7.07;93.14;100967.72;5076440;28;20426;-67
2021/11/13 09:19:56;;;;;;;0.50;0.30;;;;;;;7.11;92.89;100971.50;5076401;28;20475;-68
2021/11/13 09:22:23;;;;;;;1.53;1.43;;;;;;;7.19;92.41;100973.66;5076109;28;20453;-68
2021/11/13 09:24:49;;;;;;;0.40;0.30;;;;;;;7.22;92.49;100970.44;5076266;28;20452;-68
2021/11/13 09:27:16;;;;;;;0.40;0.30;;;;;;;7.27;92.07;100973.13;5076293;28;20487;-68
2021/11/13 09:29:43;;;;;;;0.40;0.30;;;;;;;7.26;92.43;100970.69;5076187;28;20444;-68
2021/11/13 09:32:10;;;;;;;0.40;0.30;;;;;;;7.30;92.06;100971.78;5076169;28;20437;-68
2021/11/13 09:34:36;;;;;;;0.40;0.30;;;;;;;7.34;90.68;100968.28;5075780;28;20437;-68
2021/11/13 09:37:03;;;;;;;0.60;0.60;;;;;;;7.41;90.50;100967.22;5076155;28;20437;-68
2021/11/13 09:39:30;;;;;;;0.40;0.30;;;;;;;7.43;91.01;100973.94;5075771;28;20965;-68
2021/11/13 09:42:00;;;;;;;0.40;0.30;;;;;;;7.48;90.17;100968.56;5076099;28;20437;-68
2021/11/13 09:44:27;;;;;;;0.50;0.50;;;;;;;7.55;90.53;100971.78;5075601;28;20955;-68
2021/11/13 09:46:59;;;;;;;0.40;0.30;;;;;;;7.63;90.35;100970.44;5075755;28;20493;-68
2021/11/13 09:49:26;;;;;;;0.40;0.30;;;;;;;7.70;89.41;100964.75;5075592;28;20430;-68
2021/11/13 09:51:53;;;;;;;0.40;0.30;;;;;;;7.72;89.10;100963.41;5075858;28;20437;-68
2021/11/13 09:54:20;;;;;;;1.30;1.30;;;;;;;7.73;89.13;100948.03;5075426;28;20785;-68
2021/11/13 09:56:46;;;;;;;2.47;2.37;;;;;;;7.86;89.06;100952.03;5075330;28;20970;-68
2021/11/13 09:59:13;;;;;;;0.40;0.30;;;;;;;7.93;88.23;100953.38;5075652;28;20445;-68
2021/11/13 10:01:39;;;;;;;0.40;0.30;;;;;;;7.95;87.79;100958.50;5075605;28;20438;-68
2021/11/13 10:04:07;;;;;;;0.40;0.27;;;;;;;7.98;87.91;100964.16;5075652;28;20449;-68
2021/11/13 10:06:33;;;;;;;0.40;0.30;;;;;;;7.90;86.65;100956.63;5075440;28;20484;-68
2021/11/13 10:09:00;;;;;;;0.40;0.30;;;;;;;7.90;87.31;100953.13;5075525;28;20449;-68
2021/11/13 10:11:28;;;;;;;0.40;0.30;;;;;;;7.92;87.52;100957.13;5075480;28;20449;-68
2021/11/13 10:13:57;;;;;;;0.40;0.30;;;;;;;7.96;87.39;100962.81;5075461;28;20510;-68
2021/11/13 10:16:32;;;;;;;0.40;0.30;;;;;;;7.98;87.35;100952.56;5074840;28;20468;-68
2021/11/13 10:19:04;;;;;;;0.40;0.23;;;;;;;8.00;86.64;100953.06;5075398;28;20430;-68
2021/11/13 10:21:33;;;;;;;0.40;0.30;;;;;;;7.98;87.32;100949.88;5075121;28;20464;-68
2021/11/13 10:24:04;;;;;;;0.60;0.60;;;;;;;8.06;87.00;100936.63;5075258;28;20426;-67
2021/11/13 10:26:34;;;;;;;0.40;0.30;;;;;;;8.02;86.85;100934.75;5074878;28;21070;-68
2021/11/13 10:29:04;;;;;;;4.77;3.40;;;;;;;8.04;86.88;100932.56;5075052;28;20426;-68
2021/11/13 10:31:33;;;;;;;0.40;0.30;;;;;;;8.06;85.53;100925.03;5075042;28;20448;-68
2021/11/13 10:34:01;;;;;;;0.40;0.30;;;;;;;8.08;85.67;100920.16;5074915;28;20452;-68
2021/11/13 10:36:30;;;;;;;0.40;0.30;;;;;;;8.09;86.05;100929.84;5074927;28;20460;-68
2021/11/13 10:39:05;;;;;;;0.40;0.30;;;;;;;8.06;85.90;100917.72;5074913;28;20445;-68
2021/11/13 10:41:32;;;;;;;0.40;0.30;;;;;;;8.15;86.08;100920.66;5074899;28;20425;-68
2021/11/13 10:43:59;;;;;;;0.40;0.30;;;;;;;8.24;86.37;100912.81;5074813;28;20445;-68
2021/11/13 10:46:26;;;;;;;0.40;0.20;;;;;;;8.28;85.61;100914.66;5074605;28;20524;-68
2021/11/13 10:48:56;;;;;;;0.40;0.30;;;;;;;8.32;85.34;100907.63;5074695;28;20453;-68
2021/11/13 10:51:25;;;;;;;0.40;0.30;;;;;;;8.38;85.12;100907.63;5074983;28;20437;-68
2021/11/13 10:53:52;;;;;;;0.40;0.30;;;;;;;8.38;86.13;100888.75;5074285;28;20935;-68
2021/11/13 10:56:22;;;;;;;0.40;0.30;;;;;;;8.45;86.57;100890.03;5074206;28;20456;-68
2021/11/13 10:58:55;;;;;;;0.40;0.30;;;;;;;8.56;85.78;100898.88;5074501;28;20445;-68
2021/11/13 11:01:35;;;;;;;1.73;1.63;;;;;;;8.69;85.38;100887.47;5074157;28;20798;-68
2021/11/13 11:04:07;;;;;;;0.40;0.30;;;;;;;8.83;85.51;100885.72;5074438;28;20432;-68
2021/11/13 11:06:38;;;;;;;0.40;0.30;;;;;;;9.01;84.78;100884.25;5074209;28;20485;-68
2021/11/13 11:09:21;;;;;;;0.40;0.30;;;;;;;9.20;83.36;100897.84;5074308;28;20465;-68
2021/11/13 11:11:51;;;;;;;0.83;0.77;;;;;;;9.26;83.11;100899.44;5074541;28;20414;-68
2021/11/13 11:14:19;;;;;;;0.40;0.30;;;;;;;9.26;80.96;100914.84;5073897;28;20876;-68
2021/11/13 11:16:48;;;;;;;0.80;0.80;;;;;;;9.18;81.03;100905.44;5073804;28;20461;-68
2021/11/13 11:19:16;;;;;;;0.40;0.30;;;;;;;9.18;81.80;100902.75;5074073;28;20449;-68
2021/11/13 11:21:46;;;;;;;0.40;0.30;;;;;;;9.29;81.52;100912.38;5073861;28;20453;-67
2021/11/13 11:24:14;;;;;;;0.40;0.30;;;;;;;9.43;81.81;100917.09;5074036;28;20430;-68
2021/11/13 11:26:43;;;;;;;0.40;0.30;;;;;;;9.35;81.19;100916.66;5073503;28;20489;-68
2021/11/13 11:29:11;;;;;;;0.40;0.30;;;;;;;9.37;81.43;100916.34;5073586;28;20506;-68
2021/11/13 11:31:47;;;;;;;0.40;0.30;;;;;;;9.43;79.71;100914.41;5073902;28;20452;-67
2021/11/13 11:34:34;;;;;;;0.40;0.30;;;;;;;9.56;80.07;100914.56;5073554;28;20958;-67